Time;durP1;ratioP1;P1;durP2;ratioP2;P2;SDS_P1;SDS_P2;PMS_P1;PMS_P2;Temp;Humidity;BMP_temperature;BMP_pressure;BME280_temperature;BME280_humidity;BME280_pressure;Samples;Min_cycle;Max_cycle;Signal;HPM_P1;HPM_P2
2023/04/09 00:00:11;;;;;;;57.88;29.48;;;;;;;;;;4925322;29;20063;-79
2023/04/09 00:02:37;;;;;;;52.67;27.75;;;;;;;;;;4925963;29;20036;-79
2023/04/09 00:05:04;;;;;;;58.53;30.27;;;;;;;;;;4928425;29;20035;-78
2023/04/09 00:07:30;;;;;;;55.17;27.98;;;;;;;;;;4928740;29;20028;-79
2023/04/09 00:09:56;;;;;;;49.90;25.80;;;;;;;;;;4923273;29;20032;-79
2023/04/09 00:12:22;;;;;;;54.78;27.02;;;;;;;;;;4924826;29;20028;-78
2023/04/09 00:14:48;;;;;;;53.28;26.52;;;;;;;;;;4936395;29;20115;-79
2023/04/09 00:17:14;;;;;;;55.67;26.90;;;;;;;;;;4927218;29;20083;-79
2023/04/09 00:19:40;;;;;;;52.55;25.92;;;;;;;;;;4943617;29;20591;-79
2023/04/09 00:22:06;;;;;;;48.30;25.17;;;;;;;;;;4943924;29;20036;-79
2023/04/09 00:24:32;;;;;;;51.95;26.52;;;;;;;;;;4944664;29;20392;-79
2023/04/09 00:26:58;;;;;;;52.70;26.60;;;;;;;;;;4935923;29;20076;-78
2023/04/09 00:29:24;;;;;;;56.65;26.88;;;;;;;;;;4936735;29;20028;-79
2023/04/09 00:31:50;;;;;;;54.03;27.85;;;;;;;;;;4928607;29;20072;-79
2023/04/09 00:34:16;;;;;;;56.22;27.52;;;;;;;;;;4909930;29;20035;-78
2023/04/09 00:36:42;;;;;;;53.45;27.17;;;;;;;;;;4929940;29;20530;-78
2023/04/09 00:39:08;;;;;;;51.03;26.10;;;;;;;;;;4924528;29;20035;-79
2023/04/09 00:41:34;;;;;;;57.00;28.77;;;;;;;;;;4933615;29;20082;-79
2023/04/09 00:44:00;;;;;;;58.67;27.35;;;;;;;;;;4925200;29;20036;-78
2023/04/09 00:46:26;;;;;;;56.58;27.83;;;;;;;;;;4924661;29;20029;-78
2023/04/09 00:48:53;;;;;;;54.67;27.35;;;;;;;;;;4936881;29;20062;-78
2023/04/09 00:51:19;;;;;;;58.40;28.15;;;;;;;;;;4943520;29;20028;-78
2023/04/09 00:53:45;;;;;;;58.80;28.95;;;;;;;;;;4943642;29;20035;-79
2023/04/09 00:56:12;;;;;;;58.92;28.73;;;;;;;;;;4943415;29;20028;-78
2023/04/09 00:58:40;;;;;;;58.10;29.15;;;;;;;;;;4943528;29;20604;-78
2023/04/09 01:01:06;;;;;;;61.53;29.60;;;;;;;;;;4911435;29;20487;-78
2023/04/09 01:03:32;;;;;;;57.90;30.05;;;;;;;;;;4906417;29;20033;-78
2023/04/09 01:06:10;;;;;;;56.08;29.90;;;;;;;;;;4904222;29;20029;-78
2023/04/09 01:08:51;;;;;;;60.13;30.92;;;;;;;;;;4904099;29;20047;-78
2023/04/09 01:11:36;;;;;;;57.17;30.02;;;;;;;;;;4905653;29;20387;-78
2023/04/09 01:14:25;;;;;;;54.53;29.85;;;;;;;;;;4905079;29;20044;-78
2023/04/09 01:16:55;;;;;;;59.75;30.95;;;;;;;;;;4889469;29;20053;-78
2023/04/09 01:19:43;;;;;;;61.08;31.02;;;;;;;;;;4894414;29;20032;-78
2023/04/09 01:22:29;;;;;;;57.40;29.88;;;;;;;;;;4905140;29;20041;-78
2023/04/09 01:25:14;;;;;;;58.17;30.23;;;;;;;;;;4905930;29;20052;-78
2023/04/09 01:27:46;;;;;;;58.15;29.75;;;;;;;;;;4905752;29;20032;-78
2023/04/09 01:30:13;;;;;;;62.95;30.52;;;;;;;;;;4899388;29;20036;-79
2023/04/09 01:32:40;;;;;;;60.80;30.65;;;;;;;;;;4898609;29;20039;-79
2023/04/09 01:35:06;;;;;;;59.88;31.27;;;;;;;;;;4899040;29;20044;-78
2023/04/09 01:37:32;;;;;;;60.75;32.05;;;;;;;;;;4882762;29;20162;-78
2023/04/09 01:39:59;;;;;;;61.85;32.35;;;;;;;;;;4880276;29;20029;-79
2023/04/09 01:42:25;;;;;;;63.35;31.02;;;;;;;;;;4880548;29;20056;-79
2023/04/09 01:44:51;;;;;;;60.70;31.83;;;;;;;;;;4880283;29;20036;-78
2023/04/09 01:47:17;;;;;;;58.10;30.45;;;;;;;;;;4891395;29;20016;-79
2023/04/09 01:49:44;;;;;;;55.47;29.88;;;;;;;;;;4898700;29;20381;-79
2023/04/09 01:52:10;;;;;;;59.30;30.25;;;;;;;;;;4886412;29;20021;-79
2023/04/09 01:54:36;;;;;;;62.15;31.40;;;;;;;;;;4895473;29;20036;-79
2023/04/09 01:57:02;;;;;;;60.13;30.55;;;;;;;;;;4886740;29;20025;-79
2023/04/09 01:59:28;;;;;;;58.67;30.50;;;;;;;;;;4887702;29;20061;-79
2023/04/09 02:01:57;;;;;;;64.78;32.08;;;;;;;;;;4923583;29;20040;-78
2023/04/09 02:04:30;;;;;;;63.03;30.00;;;;;;;;;;4927278;29;20120;-78
2023/04/09 02:07:04;;;;;;;60.10;30.20;;;;;;;;;;4907614;29;20051;-79
2023/04/09 02:09:31;;;;;;;59.30;31.65;;;;;;;;;;4923213;29;20032;-78
2023/04/09 02:12:02;;;;;;;58.15;30.45;;;;;;;;;;4924699;29;20117;-78
2023/04/09 02:14:29;;;;;;;55.25;28.67;;;;;;;;;;4924124;29;20464;-79
2023/04/09 02:16:55;;;;;;;53.42;27.40;;;;;;;;;;4918986;29;20024;-78
2023/04/09 02:19:21;;;;;;;53.80;28.08;;;;;;;;;;4928718;29;20395;-79
2023/04/09 02:21:47;;;;;;;54.50;29.00;;;;;;;;;;4931218;29;20514;-79
2023/04/09 02:24:13;;;;;;;58.88;29.63;;;;;;;;;;4905042;29;20039;-79
2023/04/09 02:26:39;;;;;;;58.47;30.58;;;;;;;;;;4919913;29;20491;-79
2023/04/09 02:29:05;;;;;;;57.08;29.70;;;;;;;;;;4926177;29;20038;-79
2023/04/09 02:31:31;;;;;;;55.75;28.55;;;;;;;;;;4920975;29;20028;-79
2023/04/09 02:33:57;;;;;;;57.35;29.05;;;;;;;;;;4931044;29;20031;-79
2023/04/09 02:36:23;;;;;;;54.53;28.70;;;;;;;;;;4930425;29;20059;-79
2023/04/09 02:38:49;;;;;;;54.40;27.25;;;;;;;;;;4930694;29;20110;-79
2023/04/09 02:41:15;;;;;;;57.20;28.10;;;;;;;;;;4937070;29;20376;-79
2023/04/09 02:43:41;;;;;;;56.60;28.30;;;;;;;;;;4923732;29;20039;-79
2023/04/09 02:46:07;;;;;;;56.05;27.48;;;;;;;;;;4930571;29;20027;-79
2023/04/09 02:48:33;;;;;;;54.17;26.25;;;;;;;;;;4921039;29;20135;-79
2023/04/09 02:50:59;;;;;;;52.35;27.10;;;;;;;;;;4933123;29;20115;-79
2023/04/09 02:53:25;;;;;;;57.88;25.80;;;;;;;;;;4922706;29;20403;-79
2023/04/09 02:55:51;;;;;;;58.42;26.15;;;;;;;;;;4937725;29;20055;-79
2023/04/09 02:58:17;;;;;;;65.22;27.83;;;;;;;;;;4910501;29;20024;-79
2023/04/09 03:00:43;;;;;;;71.85;31.20;;;;;;;;;;4918838;29;20451;-79
2023/04/09 03:03:09;;;;;;;63.63;28.02;;;;;;;;;;4926796;29;20086;-79
2023/04/09 03:05:36;;;;;;;64.38;27.98;;;;;;;;;;4937883;29;20035;-79
2023/04/09 03:08:02;;;;;;;61.08;27.50;;;;;;;;;;4921862;29;20028;-79
2023/04/09 03:10:28;;;;;;;57.13;26.95;;;;;;;;;;4919618;29;20051;-79
2023/04/09 03:12:54;;;;;;;71.20;29.85;;;;;;;;;;4928809;29;20383;-79
2023/04/09 03:15:20;;;;;;;64.45;29.00;;;;;;;;;;4933246;29;20024;-78
2023/04/09 03:17:46;;;;;;;72.93;31.98;;;;;;;;;;4925902;29;20119;-79
2023/04/09 03:20:12;;;;;;;72.10;31.73;;;;;;;;;;4926315;29;20404;-78
2023/04/09 03:22:39;;;;;;;77.95;32.03;;;;;;;;;;4931963;29;20122;-79
2023/04/09 03:25:05;;;;;;;74.00;31.27;;;;;;;;;;4937687;29;20031;-79
2023/04/09 03:27:32;;;;;;;77.78;33.03;;;;;;;;;;4929786;29;20055;-79
2023/04/09 03:29:58;;;;;;;75.28;29.95;;;;;;;;;;4922091;29;20063;-79
2023/04/09 03:32:24;;;;;;;71.57;30.02;;;;;;;;;;4929833;29;20048;-78
2023/04/09 03:34:50;;;;;;;70.38;28.40;;;;;;;;;;4930469;29;20031;-78
2023/04/09 03:37:16;;;;;;;74.32;30.33;;;;;;;;;;4937780;29;20032;-79
2023/04/09 03:39:42;;;;;;;68.25;29.42;;;;;;;;;;4939679;29;20399;-79
2023/04/09 03:42:08;;;;;;;69.57;28.45;;;;;;;;;;4930276;29;20032;-79
2023/04/09 03:44:33;;;;;;;69.45;28.02;;;;;;;;;;4912592;29;20115;-79
2023/04/09 03:46:59;;;;;;;71.07;27.63;;;;;;;;;;4937380;29;20432;-79
2023/04/09 03:49:25;;;;;;;71.60;29.13;;;;;;;;;;4935021;29;20031;-79
2023/04/09 03:51:51;;;;;;;75.35;30.65;;;;;;;;;;4926991;29;20207;-79
2023/04/09 03:54:17;;;;;;;69.65;30.25;;;;;;;;;;4919637;29;20024;-79
2023/04/09 03:56:43;;;;;;;74.15;29.67;;;;;;;;;;4936287;29;20039;-78
2023/04/09 03:59:09;;;;;;;72.13;28.40;;;;;;;;;;4937233;29;20024;-78
2023/04/09 04:01:35;;;;;;;71.13;29.85;;;;;;;;;;4934221;29;20063;-79
2023/04/09 04:04:01;;;;;;;71.65;30.58;;;;;;;;;;4936709;29;20434;-79
2023/04/09 04:06:27;;;;;;;65.72;29.27;;;;;;;;;;4932784;29;20098;-79
2023/04/09 04:08:53;;;;;;;68.50;28.50;;;;;;;;;;4921022;29;20027;-79
2023/04/09 04:11:19;;;;;;;69.63;29.02;;;;;;;;;;4936443;29;20514;-79
2023/04/09 04:13:45;;;;;;;67.97;28.35;;;;;;;;;;4919390;29;20032;-78
2023/04/09 04:16:11;;;;;;;69.10;29.35;;;;;;;;;;4930321;29;20102;-78
2023/04/09 04:18:37;;;;;;;66.65;28.35;;;;;;;;;;4928185;29;20040;-78
2023/04/09 04:21:03;;;;;;;69.10;29.70;;;;;;;;;;4932668;29;20059;-78
2023/04/09 04:23:29;;;;;;;68.90;28.25;;;;;;;;;;4902200;29;20470;-78
2023/04/09 04:25:56;;;;;;;65.20;28.42;;;;;;;;;;4935197;29;20024;-78
2023/04/09 04:28:22;;;;;;;67.28;28.30;;;;;;;;;;4930542;29;20467;-78
2023/04/09 04:30:48;;;;;;;61.50;26.65;;;;;;;;;;4926010;29;20087;-78
2023/04/09 04:33:15;;;;;;;71.10;29.27;;;;;;;;;;4922366;29;20395;-78
2023/04/09 04:35:40;;;;;;;67.32;27.65;;;;;;;;;;4928415;29;20662;-79
2023/04/09 04:38:06;;;;;;;69.40;29.42;;;;;;;;;;4923047;29;20029;-78
2023/04/09 04:40:32;;;;;;;64.97;28.25;;;;;;;;;;4924845;29;20027;-79
2023/04/09 04:42:58;;;;;;;64.45;29.00;;;;;;;;;;4908007;29;20483;-79
2023/04/09 04:45:24;;;;;;;68.75;31.60;;;;;;;;;;4925700;29;20035;-79
2023/04/09 04:47:50;;;;;;;65.65;29.05;;;;;;;;;;4924769;29;20032;-79
2023/04/09 04:50:16;;;;;;;63.55;26.95;;;;;;;;;;4908416;29;20103;-79
2023/04/09 04:52:42;;;;;;;71.50;28.02;;;;;;;;;;4915731;29;20036;-78
2023/04/09 04:55:08;;;;;;;71.18;30.85;;;;;;;;;;4912467;29;20039;-78
2023/04/09 04:57:34;;;;;;;71.70;30.23;;;;;;;;;;4926314;29;20039;-79
2023/04/09 05:00:00;;;;;;;69.22;29.67;;;;;;;;;;4925403;29;20031;-79
2023/04/09 05:02:26;;;;;;;69.10;29.73;;;;;;;;;;4918045;29;20044;-79
2023/04/09 05:04:52;;;;;;;63.03;26.88;;;;;;;;;;4918967;29;20497;-79
2023/04/09 05:07:18;;;;;;;62.67;26.95;;;;;;;;;;4925373;29;20036;-78
2023/04/09 05:09:44;;;;;;;71.93;29.05;;;;;;;;;;4928692;29;20415;-79
2023/04/09 05:12:10;;;;;;;61.05;26.30;;;;;;;;;;4933655;29;20031;-79
2023/04/09 05:14:36;;;;;;;61.50;28.10;;;;;;;;;;4929595;29;20487;-79
2023/04/09 05:17:03;;;;;;;64.35;27.15;;;;;;;;;;4923364;29;20055;-79
2023/04/09 05:19:28;;;;;;;61.72;27.48;;;;;;;;;;4918530;29;20102;-79
2023/04/09 05:21:55;;;;;;;60.50;27.38;;;;;;;;;;4926916;29;20128;-79
2023/04/09 05:24:20;;;;;;;59.15;25.55;;;;;;;;;;4929358;29;20114;-79
2023/04/09 05:26:47;;;;;;;56.85;24.60;;;;;;;;;;4921459;29;20059;-79
2023/04/09 05:29:13;;;;;;;54.70;23.40;;;;;;;;;;4933361;29;20036;-79
2023/04/09 05:31:39;;;;;;;48.20;21.63;;;;;;;;;;4925163;29;20471;-79
2023/04/09 05:34:05;;;;;;;55.13;23.48;;;;;;;;;;4919309;29;20373;-79
2023/04/09 05:36:31;;;;;;;56.10;23.90;;;;;;;;;;4922867;29;20494;-79
2023/04/09 05:38:57;;;;;;;46.67;20.70;;;;;;;;;;4922616;29;20040;-79
2023/04/09 05:41:23;;;;;;;48.33;21.67;;;;;;;;;;4921633;29;20036;-79
2023/04/09 05:43:49;;;;;;;45.47;20.10;;;;;;;;;;4915567;29;20029;-79
2023/04/09 05:46:15;;;;;;;47.40;21.05;;;;;;;;;;4917982;29;20028;-79
2023/04/09 05:48:41;;;;;;;43.22;20.13;;;;;;;;;;4925999;29;20032;-78
2023/04/09 05:51:08;;;;;;;44.95;19.65;;;;;;;;;;4926217;29;20196;-78
2023/04/09 05:53:34;;;;;;;47.20;19.95;;;;;;;;;;4918587;29;20501;-78
2023/04/09 05:56:01;;;;;;;46.60;21.00;;;;;;;;;;4931683;29;20023;-78
2023/04/09 05:58:28;;;;;;;50.08;20.45;;;;;;;;;;4931154;29;20040;-78
2023/04/09 06:00:54;;;;;;;44.80;21.90;;;;;;;;;;4929735;29;20128;-78
2023/04/09 06:03:20;;;;;;;49.75;23.05;;;;;;;;;;4921995;29;20036;-78
2023/04/09 06:05:47;;;;;;;50.10;22.80;;;;;;;;;;4929316;29;20095;-78
2023/04/09 06:08:13;;;;;;;52.55;23.05;;;;;;;;;;4930512;29;20059;-79
2023/04/09 06:10:39;;;;;;;52.28;21.73;;;;;;;;;;4932502;29;20304;-79
2023/04/09 06:13:05;;;;;;;56.13;23.45;;;;;;;;;;4929383;29;20032;-79
2023/04/09 06:15:31;;;;;;;46.42;21.77;;;;;;;;;;4939100;29;20095;-78
2023/04/09 06:17:58;;;;;;;48.15;21.10;;;;;;;;;;4930136;29;20379;-79
2023/04/09 06:20:24;;;;;;;50.90;22.73;;;;;;;;;;4932397;29;20246;-78
2023/04/09 06:22:50;;;;;;;52.80;23.00;;;;;;;;;;4935023;29;20036;-78
2023/04/09 06:25:16;;;;;;;43.75;20.45;;;;;;;;;;4927187;29;20024;-79
2023/04/09 06:27:42;;;;;;;49.55;21.58;;;;;;;;;;4914728;29;20171;-78
2023/04/09 06:30:09;;;;;;;47.60;22.30;;;;;;;;;;4926079;29;20134;-78
2023/04/09 06:32:35;;;;;;;48.63;22.25;;;;;;;;;;4925557;29;20036;-79
2023/04/09 06:35:01;;;;;;;48.30;20.88;;;;;;;;;;4935229;29;20304;-78
2023/04/09 06:37:27;;;;;;;45.05;21.00;;;;;;;;;;4933506;29;20035;-79
2023/04/09 06:39:53;;;;;;;43.58;20.23;;;;;;;;;;4920640;29;20036;-78
2023/04/09 06:42:19;;;;;;;49.25;21.60;;;;;;;;;;4923748;29;20043;-79
2023/04/09 06:44:45;;;;;;;47.17;21.35;;;;;;;;;;4936886;29;20138;-79
2023/04/09 06:47:11;;;;;;;43.15;19.83;;;;;;;;;;4927044;29;20024;-78
2023/04/09 06:49:37;;;;;;;50.80;22.42;;;;;;;;;;4933605;29;20398;-78
2023/04/09 06:52:04;;;;;;;44.42;21.08;;;;;;;;;;4930721;29;20055;-78
2023/04/09 06:54:30;;;;;;;45.78;20.77;;;;;;;;;;4931255;29;20094;-78
2023/04/09 06:56:56;;;;;;;47.53;20.27;;;;;;;;;;4930366;29;20090;-78
2023/04/09 06:59:22;;;;;;;46.50;20.33;;;;;;;;;;4927142;29;20085;-78
2023/04/09 07:01:48;;;;;;;46.85;21.60;;;;;;;;;;4928614;29;20493;-78
2023/04/09 07:04:14;;;;;;;44.95;21.33;;;;;;;;;;4930632;29;20079;-78
2023/04/09 07:06:40;;;;;;;50.40;22.20;;;;;;;;;;4917221;29;20476;-78
2023/04/09 07:09:06;;;;;;;44.40;21.10;;;;;;;;;;4926082;29;20024;-78
2023/04/09 07:11:32;;;;;;;41.85;21.00;;;;;;;;;;4930324;29;20493;-78
2023/04/09 07:13:59;;;;;;;46.00;22.38;;;;;;;;;;4927739;29;20024;-78
2023/04/09 07:16:25;;;;;;;43.63;20.17;;;;;;;;;;4928559;29;20035;-78
2023/04/09 07:18:51;;;;;;;43.58;21.00;;;;;;;;;;4927370;29;20174;-78
2023/04/09 07:21:17;;;;;;;44.28;21.48;;;;;;;;;;4926961;29;20047;-78
2023/04/09 07:23:44;;;;;;;49.75;23.02;;;;;;;;;;4923563;29;20031;-78
2023/04/09 07:26:10;;;;;;;42.90;20.92;;;;;;;;;;4925418;29;20032;-78
2023/04/09 07:28:36;;;;;;;42.38;20.27;;;;;;;;;;4928963;29;20036;-78
2023/04/09 07:31:02;;;;;;;43.75;21.10;;;;;;;;;;4928046;29;20171;-78
2023/04/09 07:33:28;;;;;;;43.97;20.73;;;;;;;;;;4923879;29;20475;-78
2023/04/09 07:35:55;;;;;;;44.05;20.20;;;;;;;;;;4932109;29;20479;-78
2023/04/09 07:38:21;;;;;;;36.53;19.10;;;;;;;;;;4926484;29;20558;-78
2023/04/09 07:40:47;;;;;;;46.33;21.05;;;;;;;;;;4928565;29;20118;-79
2023/04/09 07:43:13;;;;;;;43.50;19.40;;;;;;;;;;4924909;29;20116;-79
2023/04/09 07:45:39;;;;;;;48.55;21.88;;;;;;;;;;4925816;29;20095;-79
2023/04/09 07:48:07;;;;;;;44.30;19.30;;;;;;;;;;4921634;29;20036;-79
2023/04/09 07:50:33;;;;;;;46.90;20.67;;;;;;;;;;4924346;29;20494;-78
2023/04/09 07:52:59;;;;;;;46.13;21.15;;;;;;;;;;4919789;29;20032;-79
2023/04/09 07:55:25;;;;;;;45.20;21.00;;;;;;;;;;4924839;29;20031;-78
2023/04/09 07:57:52;;;;;;;46.70;20.77;;;;;;;;;;4918803;29;20032;-78
2023/04/09 08:00:18;;;;;;;46.78;19.58;;;;;;;;;;4926791;29;20028;-79
2023/04/09 08:02:44;;;;;;;45.75;21.38;;;;;;;;;;4918394;29;20056;-78
2023/04/09 08:05:10;;;;;;;49.38;21.02;;;;;;;;;;4903091;29;20035;-79
2023/04/09 08:07:36;;;;;;;43.10;21.42;;;;;;;;;;4913498;29;20032;-78
2023/04/09 08:10:02;;;;;;;40.58;19.10;;;;;;;;;;4922498;29;20163;-78
2023/04/09 08:12:28;;;;;;;45.78;21.73;;;;;;;;;;4921110;29;20039;-79
2023/04/09 08:14:54;;;;;;;43.10;20.63;;;;;;;;;;4929614;29;20028;-79
2023/04/09 08:17:21;;;;;;;45.70;22.17;;;;;;;;;;4925499;29;20035;-79
2023/04/09 08:19:48;;;;;;;44.00;21.35;;;;;;;;;;4925420;29;20063;-79
2023/04/09 08:22:14;;;;;;;44.65;21.27;;;;;;;;;;4928006;29;20028;-79
2023/04/09 08:24:42;;;;;;;41.78;20.33;;;;;;;;;;4901627;29;20025;-79
2023/04/09 08:27:08;;;;;;;39.13;19.13;;;;;;;;;;4921181;29;20024;-79
2023/04/09 08:29:34;;;;;;;42.95;20.65;;;;;;;;;;4932903;29;20040;-79
2023/04/09 08:32:00;;;;;;;39.78;20.08;;;;;;;;;;4925469;29;20034;-79
2023/04/09 08:34:26;;;;;;;42.65;21.20;;;;;;;;;;4929590;29;20099;-79
2023/04/09 08:36:53;;;;;;;38.95;19.48;;;;;;;;;;4926919;29;20394;-79
2023/04/09 08:39:19;;;;;;;41.22;20.48;;;;;;;;;;4929519;29;20055;-79
2023/04/09 08:41:47;;;;;;;41.10;20.13;;;;;;;;;;4923659;29;20035;-79
2023/04/09 08:44:13;;;;;;;42.55;19.80;;;;;;;;;;4923454;29;20024;-79
2023/04/09 08:46:39;;;;;;;44.00;19.77;;;;;;;;;;4928922;29;20510;-79
2023/04/09 08:49:05;;;;;;;46.03;21.45;;;;;;;;;;4930036;29;20050;-79
2023/04/09 08:51:31;;;;;;;39.83;19.73;;;;;;;;;;4927556;29;20038;-80
2023/04/09 08:53:58;;;;;;;40.20;20.20;;;;;;;;;;4947912;29;20023;-79
2023/04/09 08:56:25;;;;;;;42.60;20.27;;;;;;;;;;4955164;29;20087;-80
2023/04/09 08:58:52;;;;;;;45.65;21.83;;;;;;;;;;4945221;29;20027;-80
2023/04/09 09:01:25;;;;;;;43.97;21.33;;;;;;;;;;4935989;29;20176;-81
2023/04/09 09:04:08;;;;;;;42.78;20.83;;;;;;;;;;4940415;29;20032;-81
2023/04/09 09:06:35;;;;;;;42.60;20.85;;;;;;;;;;4924188;29;20391;-80
2023/04/09 09:09:05;;;;;;;45.70;21.70;;;;;;;;;;4938857;29;20079;-80
2023/04/09 09:11:31;;;;;;;;;;;;;;;;;;4947029;29;20087;-80
2023/04/09 09:13:58;;;;;;;45.08;20.73;;;;;;;;;;4939847;29;19958;-80
2023/04/09 09:16:24;;;;;;;45.55;21.15;;;;;;;;;;4939719;29;20060;-80
2023/04/09 09:18:51;;;;;;;42.58;20.30;;;;;;;;;;4911568;29;20556;-80
2023/04/09 09:21:18;;;;;;;46.83;24.05;;;;;;;;;;4940235;29;20032;-80
2023/04/09 09:23:44;;;;;;;46.05;21.52;;;;;;;;;;4904643;29;20039;-80
2023/04/09 09:26:15;;;;;;;46.40;21.77;;;;;;;;;;4924703;29;20035;-80
2023/04/09 09:28:41;;;;;;;46.35;22.55;;;;;;;;;;4937601;29;20020;-80
2023/04/09 09:31:08;;;;;;;47.55;22.27;;;;;;;;;;4939260;29;20046;-80
2023/04/09 09:33:34;;;;;;;43.22;21.33;;;;;;;;;;4930372;29;20401;-80
2023/04/09 09:36:02;;;;;;;46.45;23.10;;;;;;;;;;4902845;29;20020;-80
2023/04/09 09:38:28;;;;;;;42.13;20.20;;;;;;;;;;4919783;29;20044;-80
2023/04/09 09:40:54;;;;;;;40.63;20.08;;;;;;;;;;4920035;29;20032;-80
2023/04/09 09:43:20;;;;;;;39.22;18.88;;;;;;;;;;4926091;29;20030;-80
2023/04/09 09:45:47;;;;;;;34.65;18.73;;;;;;;;;;4929814;29;20028;-80
2023/04/09 09:48:14;;;;;;;33.33;18.25;;;;;;;;;;4939113;29;20032;-81
2023/04/09 09:50:41;;;;;;;35.72;17.92;;;;;;;;;;4938956;29;20032;-80
2023/04/09 09:53:07;;;;;;;36.55;19.70;;;;;;;;;;4908651;29;20035;-80
2023/04/09 09:55:37;;;;;;;34.72;18.63;;;;;;;;;;4936680;29;20423;-80
2023/04/09 09:58:10;;;;;;;35.42;17.40;;;;;;;;;;4938666;29;20028;-80
2023/04/09 10:00:37;;;;;;;35.13;18.60;;;;;;;;;;4932630;29;20072;-81
2023/04/09 10:03:12;;;;;;;34.28;18.38;;;;;;;;;;4938252;29;20497;-79
2023/04/09 10:05:38;;;;;;;34.28;18.20;;;;;;;;;;4938101;29;20027;-79
2023/04/09 10:08:04;;;;;;;36.75;20.17;;;;;;;;;;4937641;29;20027;-80
2023/04/09 10:10:31;;;;;;;43.85;22.52;;;;;;;;;;4939722;29;20027;-79
2023/04/09 10:12:57;;;;;;;42.58;21.80;;;;;;;;;;4954113;29;20031;-79
2023/04/09 10:15:23;;;;;;;39.15;20.65;;;;;;;;;;4936494;29;20367;-79
2023/04/09 10:17:49;;;;;;;39.20;21.17;;;;;;;;;;4919637;29;20027;-79
2023/04/09 10:20:18;;;;;;;38.55;19.70;;;;;;;;;;4937413;29;20035;-80
2023/04/09 10:22:47;;;;;;;38.13;20.25;;;;;;;;;;4937682;29;20031;-79
2023/04/09 10:25:14;;;;;;;38.83;19.70;;;;;;;;;;4901125;29;20036;-79
2023/04/09 10:27:41;;;;;;;33.20;18.95;;;;;;;;;;4918474;29;20032;-79
2023/04/09 10:30:09;;;;;;;38.03;19.20;;;;;;;;;;4901830;29;20131;-79
2023/04/09 10:32:35;;;;;;;31.55;18.85;;;;;;;;;;4920465;29;20119;-79
2023/04/09 10:35:02;;;;;;;39.53;20.17;;;;;;;;;;4943389;29;20028;-79
2023/04/09 10:37:29;;;;;;;34.72;19.13;;;;;;;;;;4938344;29;20024;-79
2023/04/09 10:39:56;;;;;;;34.42;19.35;;;;;;;;;;4936589;29;20024;-79
2023/04/09 10:42:49;;;;;;;30.27;17.67;;;;;;;;;;4940803;29;20019;-79
2023/04/09 10:45:18;;;;;;;31.83;18.35;;;;;;;;;;4937716;29;20406;-79
2023/04/09 10:47:45;;;;;;;35.47;19.15;;;;;;;;;;4940980;29;20024;-79
2023/04/09 10:50:15;;;;;;;35.33;18.58;;;;;;;;;;4939738;29;20031;-79
2023/04/09 10:52:41;;;;;;;31.65;17.95;;;;;;;;;;4935203;29;20379;-79
2023/04/09 10:55:07;;;;;;;34.63;18.67;;;;;;;;;;4927127;29;20456;-79
2023/04/09 10:57:33;;;;;;;30.38;17.55;;;;;;;;;;4934181;29;20059;-79
2023/04/09 10:59:59;;;;;;;34.00;17.88;;;;;;;;;;4936134;29;20028;-79
2023/04/09 11:02:38;;;;;;;34.72;20.00;;;;;;;;;;4929927;29;20060;-79
2023/04/09 11:05:22;;;;;;;31.85;17.48;;;;;;;;;;4931706;29;20103;-79
2023/04/09 11:07:52;;;;;;;32.90;19.35;;;;;;;;;;4940844;29;20071;-79
2023/04/09 11:10:23;;;;;;;33.22;19.05;;;;;;;;;;4940024;29;20035;-79
2023/04/09 11:13:00;;;;;;;32.47;18.83;;;;;;;;;;4940764;29;20106;-80
2023/04/09 11:15:26;;;;;;;39.42;23.13;;;;;;;;;;4940673;29;20027;-79
2023/04/09 11:17:52;;;;;;;34.97;19.58;;;;;;;;;;4933482;29;20036;-78
2023/04/09 11:20:22;;;;;;;34.70;18.77;;;;;;;;;;4933451;29;20039;-79
2023/04/09 11:22:51;;;;;;;40.67;19.88;;;;;;;;;;4904457;29;20404;-79
2023/04/09 11:25:21;;;;;;;40.35;19.63;;;;;;;;;;4912725;29;20467;-79
2023/04/09 11:27:47;;;;;;;37.25;20.23;;;;;;;;;;4934734;29;20023;-79
2023/04/09 11:30:13;;;;;;;35.35;19.35;;;;;;;;;;4932499;29;20043;-78
2023/04/09 11:32:40;;;;;;;36.65;19.83;;;;;;;;;;4930471;29;20480;-79
2023/04/09 11:35:11;;;;;;;38.08;21.48;;;;;;;;;;4931988;29;20427;-78
2023/04/09 11:37:45;;;;;;;34.85;19.15;;;;;;;;;;4915546;29;20046;-78
2023/04/09 11:40:18;;;;;;;32.78;19.00;;;;;;;;;;4923583;29;20048;-78
2023/04/09 11:42:44;;;;;;;31.42;17.48;;;;;;;;;;4915918;29;20673;-78
2023/04/09 11:45:11;;;;;;;34.60;19.73;;;;;;;;;;4923294;29;20080;-78
2023/04/09 11:47:38;;;;;;;34.88;18.83;;;;;;;;;;4924050;29;20038;-79
2023/04/09 11:50:06;;;;;;;32.88;18.98;;;;;;;;;;4916201;29;20060;-79
2023/04/09 11:52:34;;;;;;;34.83;20.40;;;;;;;;;;4925482;29;20495;-79
2023/04/09 11:55:00;;;;;;;30.92;17.67;;;;;;;;;;4922427;29;20032;-78
2023/04/09 11:57:35;;;;;;;34.03;20.02;;;;;;;;;;4935071;29;20156;-79
2023/04/09 12:00:05;;;;;;;36.47;20.67;;;;;;;;;;4924914;29;20110;-79
2023/04/09 12:02:31;;;;;;;33.72;20.83;;;;;;;;;;4928658;29;20420;-79
2023/04/09 12:05:02;;;;;;;33.50;18.83;;;;;;;;;;4929660;29;20023;-79
2023/04/09 12:07:31;;;;;;;34.47;18.52;;;;;;;;;;4929444;29;20021;-79
2023/04/09 12:10:02;;;;;;;31.40;17.80;;;;;;;;;;4925241;29;20391;-79
2023/04/09 12:12:28;;;;;;;35.00;19.73;;;;;;;;;;4903522;29;20032;-80
2023/04/09 12:14:57;;;;;;;33.00;20.23;;;;;;;;;;4920566;29;20031;-80
2023/04/09 12:17:23;;;;;;;32.90;19.33;;;;;;;;;;4920668;29;20028;-79
2023/04/09 12:19:49;;;;;;;32.35;20.08;;;;;;;;;;4915302;29;20020;-79
2023/04/09 12:22:15;;;;;;;32.70;19.02;;;;;;;;;;4924856;29;20040;-79
2023/04/09 12:24:41;;;;;;;29.83;19.38;;;;;;;;;;4920744;29;20035;-80
2023/04/09 12:27:07;;;;;;;33.92;20.55;;;;;;;;;;4918274;29;20451;-80
2023/04/09 12:29:34;;;;;;;30.33;18.58;;;;;;;;;;4919801;29;20028;-79
2023/04/09 12:32:03;;;;;;;33.03;18.98;;;;;;;;;;4920614;29;20071;-79
2023/04/09 12:34:35;;;;;;;31.23;19.20;;;;;;;;;;4934493;29;20527;-79
2023/04/09 12:37:01;;;;;;;29.73;19.60;;;;;;;;;;4938351;29;20546;-79
2023/04/09 12:39:27;;;;;;;28.45;17.92;;;;;;;;;;4938473;29;20063;-79
2023/04/09 12:41:53;;;;;;;29.50;18.45;;;;;;;;;;4937216;29;20157;-79
2023/04/09 12:44:19;;;;;;;31.70;19.70;;;;;;;;;;4922086;29;20128;-79
2023/04/09 12:46:45;;;;;;;30.67;18.95;;;;;;;;;;4927349;29;20036;-79
2023/04/09 12:49:11;;;;;;;31.80;20.13;;;;;;;;;;4924883;29;20023;-79
2023/04/09 12:51:37;;;;;;;27.85;17.50;;;;;;;;;;4939057;29;20463;-79
2023/04/09 12:54:03;;;;;;;29.10;18.83;;;;;;;;;;4937369;29;20058;-78
2023/04/09 12:56:29;;;;;;;29.88;18.23;;;;;;;;;;4937756;29;20060;-79
2023/04/09 12:58:55;;;;;;;27.42;18.17;;;;;;;;;;4921276;29;20024;-79
2023/04/09 13:01:21;;;;;;;29.27;17.67;;;;;;;;;;4937934;29;20060;-79
2023/04/09 13:03:47;;;;;;;29.23;18.88;;;;;;;;;;4936410;29;20028;-79
2023/04/09 13:06:13;;;;;;;28.42;18.33;;;;;;;;;;4937555;29;20387;-79
2023/04/09 13:08:40;;;;;;;29.88;20.08;;;;;;;;;;4938343;29;20027;-80
2023/04/09 13:11:06;;;;;;;28.05;18.83;;;;;;;;;;4939640;29;20024;-79
2023/04/09 13:13:32;;;;;;;28.77;19.83;;;;;;;;;;4937861;29;20027;-79
2023/04/09 13:16:04;;;;;;;28.55;18.42;;;;;;;;;;4937559;29;20030;-79
2023/04/09 13:18:30;;;;;;;29.30;18.33;;;;;;;;;;4918082;29;20039;-81
2023/04/09 13:20:56;;;;;;;27.88;18.83;;;;;;;;;;4918164;29;20036;-80
2023/04/09 13:23:22;;;;;;;30.42;18.15;;;;;;;;;;4918635;29;20451;-80
2023/04/09 13:25:48;;;;;;;31.52;21.85;;;;;;;;;;4926870;29;20028;-80
2023/04/09 13:28:14;;;;;;;26.50;17.92;;;;;;;;;;4937093;29;20050;-78
2023/04/09 13:30:40;;;;;;;32.92;19.80;;;;;;;;;;4936457;29;20075;-78
2023/04/09 13:33:06;;;;;;;31.02;18.55;;;;;;;;;;4935656;29;20031;-78
2023/04/09 13:35:32;;;;;;;27.30;17.92;;;;;;;;;;4935143;29;20028;-78
2023/04/09 13:37:58;;;;;;;29.40;17.92;;;;;;;;;;4935198;29;20028;-78
2023/04/09 13:40:24;;;;;;;27.98;18.05;;;;;;;;;;4935665;29;20385;-78
2023/04/09 13:42:50;;;;;;;28.30;17.95;;;;;;;;;;4936571;29;20039;-78
2023/04/09 13:45:16;;;;;;;26.83;17.27;;;;;;;;;;4935858;29;20031;-78
2023/04/09 13:47:42;;;;;;;26.45;17.35;;;;;;;;;;4936789;29;20016;-78
2023/04/09 13:50:09;;;;;;;25.35;16.65;;;;;;;;;;4935455;29;20030;-78
2023/04/09 13:52:35;;;;;;;25.15;16.90;;;;;;;;;;4925794;29;20028;-78
2023/04/09 13:55:02;;;;;;;24.88;16.80;;;;;;;;;;4934576;29;20098;-78
2023/04/09 13:57:29;;;;;;;25.25;16.52;;;;;;;;;;4931959;29;20115;-79
2023/04/09 13:59:55;;;;;;;25.15;18.38;;;;;;;;;;4918410;29;20020;-78
2023/04/09 14:02:22;;;;;;;22.88;17.13;;;;;;;;;;4660572;29;8060396;-78
2023/04/09 14:04:48;;;;;;;24.10;16.80;;;;;;;;;;4937824;29;20055;-79
2023/04/09 14:07:14;;;;;;;23.20;16.25;;;;;;;;;;4920465;29;20039;-78
2023/04/09 14:09:40;;;;;;;23.15;16.35;;;;;;;;;;4937420;29;20027;-79
2023/04/09 14:12:13;;;;;;;26.63;18.17;;;;;;;;;;4938651;29;20502;-79
2023/04/09 14:14:39;;;;;;;24.50;17.70;;;;;;;;;;4927341;29;20044;-79